sensor_id;sensor_type;location;lat;lon;timestamp;P1;durP1;ratioP1;P2;durP2;ratioP2
83632;SDS011;73595;53.084;6.696;2024-01-10T00:02:08;40.22;;;23.27;;
83632;SDS011;73595;53.084;6.696;2024-01-10T00:04:34;45.28;;;24.05;;
83632;SDS011;73595;53.084;6.696;2024-01-10T00:06:59;39.00;;;21.50;;
83632;SDS011;73595;53.084;6.696;2024-01-10T00:09:24;36.08;;;20.98;;
83632;SDS011;73595;53.084;6.696;2024-01-10T00:11:51;36.90;;;20.63;;
83632;SDS011;73595;53.084;6.696;2024-01-10T00:14:16;35.08;;;21.58;;
83632;SDS011;73595;53.084;6.696;2024-01-10T00:16:42;36.90;;;21.23;;
83632;SDS011;73595;53.084;6.696;2024-01-10T00:19:09;40.05;;;21.75;;
83632;SDS011;73595;53.084;6.696;2024-01-10T00:21:34;34.83;;;20.70;;
83632;SDS011;73595;53.084;6.696;2024-01-10T00:24:01;37.33;;;21.48;;
83632;SDS011;73595;53.084;6.696;2024-01-10T00:26:26;37.15;;;20.95;;
83632;SDS011;73595;53.084;6.696;2024-01-10T00:28:53;40.47;;;20.38;;
83632;SDS011;73595;53.084;6.696;2024-01-10T00:31:18;39.75;;;22.20;;
83632;SDS011;73595;53.084;6.696;2024-01-10T00:33:44;38.58;;;20.58;;
83632;SDS011;73595;53.084;6.696;2024-01-10T00:36:09;41.38;;;21.60;;
83632;SDS011;73595;53.084;6.696;2024-01-10T00:38:34;38.17;;;20.45;;
83632;SDS011;73595;53.084;6.696;2024-01-10T00:41:01;33.30;;;19.75;;
83632;SDS011;73595;53.084;6.696;2024-01-10T00:43:27;34.33;;;20.05;;
83632;SDS011;73595;53.084;6.696;2024-01-10T00:45:53;34.53;;;20.25;;
83632;SDS011;73595;53.084;6.696;2024-01-10T00:48:18;39.83;;;21.15;;
83632;SDS011;73595;53.084;6.696;2024-01-10T00:50:44;37.88;;;20.48;;
83632;SDS011;73595;53.084;6.696;2024-01-10T00:53:09;35.15;;;19.70;;
83632;SDS011;73595;53.084;6.696;2024-01-10T00:55:35;40.30;;;21.65;;
83632;SDS011;73595;53.084;6.696;2024-01-10T00:58:00;34.88;;;19.90;;
83632;SDS011;73595;53.084;6.696;2024-01-10T01:00:25;33.13;;;18.67;;
83632;SDS011;73595;53.084;6.696;2024-01-10T01:02:52;33.25;;;19.00;;
83632;SDS011;73595;53.084;6.696;2024-01-10T01:05:19;31.63;;;18.40;;
83632;SDS011;73595;53.084;6.696;2024-01-10T01:07:44;32.28;;;17.80;;
83632;SDS011;73595;53.084;6.696;2024-01-10T01:10:09;31.45;;;17.63;;
83632;SDS011;73595;53.084;6.696;2024-01-10T01:12:35;33.75;;;19.40;;
83632;SDS011;73595;53.084;6.696;2024-01-10T01:15:01;33.47;;;18.60;;
83632;SDS011;73595;53.084;6.696;2024-01-10T01:17:26;36.10;;;18.42;;
83632;SDS011;73595;53.084;6.696;2024-01-10T01:19:52;30.95;;;17.80;;
83632;SDS011;73595;53.084;6.696;2024-01-10T01:22:17;35.35;;;18.25;;
83632;SDS011;73595;53.084;6.696;2024-01-10T01:24:42;34.55;;;19.05;;
83632;SDS011;73595;53.084;6.696;2024-01-10T01:27:08;35.55;;;18.63;;
83632;SDS011;73595;53.084;6.696;2024-01-10T01:29:34;33.17;;;18.65;;
83632;SDS011;73595;53.084;6.696;2024-01-10T01:31:59;29.40;;;17.92;;
83632;SDS011;73595;53.084;6.696;2024-01-10T01:34:24;30.75;;;17.48;;
83632;SDS011;73595;53.084;6.696;2024-01-10T01:36:50;30.83;;;16.80;;
83632;SDS011;73595;53.084;6.696;2024-01-10T01:39:16;29.70;;;17.02;;
83632;SDS011;73595;53.084;6.696;2024-01-10T01:41:42;29.45;;;17.08;;
83632;SDS011;73595;53.084;6.696;2024-01-10T01:44:10;29.30;;;16.45;;
83632;SDS011;73595;53.084;6.696;2024-01-10T01:46:36;32.45;;;18.13;;
83632;SDS011;73595;53.084;6.696;2024-01-10T01:49:02;29.83;;;17.80;;
83632;SDS011;73595;53.084;6.696;2024-01-10T01:51:30;31.63;;;18.60;;
83632;SDS011;73595;53.084;6.696;2024-01-10T01:53:59;30.98;;;18.13;;
83632;SDS011;73595;53.084;6.696;2024-01-10T01:56:25;37.13;;;19.27;;
83632;SDS011;73595;53.084;6.696;2024-01-10T01:58:51;34.65;;;20.30;;
83632;SDS011;73595;53.084;6.696;2024-01-10T02:01:20;36.95;;;20.55;;
83632;SDS011;73595;53.084;6.696;2024-01-10T02:03:47;38.85;;;20.08;;
83632;SDS011;73595;53.084;6.696;2024-01-10T02:06:12;37.38;;;21.30;;
83632;SDS011;73595;53.084;6.696;2024-01-10T02:08:38;35.00;;;20.88;;
83632;SDS011;73595;53.084;6.696;2024-01-10T02:11:03;40.88;;;21.60;;
83632;SDS011;73595;53.084;6.696;2024-01-10T02:13:30;39.95;;;20.13;;
83632;SDS011;73595;53.084;6.696;2024-01-10T02:15:57;35.00;;;20.30;;
83632;SDS011;73595;53.084;6.696;2024-01-10T02:18:24;40.38;;;22.05;;
83632;SDS011;73595;53.084;6.696;2024-01-10T02:20:49;37.33;;;21.40;;
83632;SDS011;73595;53.084;6.696;2024-01-10T02:23:16;34.97;;;19.40;;
83632;SDS011;73595;53.084;6.696;2024-01-10T02:25:42;37.65;;;20.85;;
83632;SDS011;73595;53.084;6.696;2024-01-10T02:28:07;33.30;;;20.33;;
83632;SDS011;73595;53.084;6.696;2024-01-10T02:30:34;33.47;;;20.23;;
83632;SDS011;73595;53.084;6.696;2024-01-10T02:33:00;41.63;;;21.30;;
83632;SDS011;73595;53.084;6.696;2024-01-10T02:35:25;39.80;;;20.55;;
83632;SDS011;73595;53.084;6.696;2024-01-10T02:37:51;42.17;;;21.52;;
83632;SDS011;73595;53.084;6.696;2024-01-10T02:40:19;45.00;;;22.00;;
83632;SDS011;73595;53.084;6.696;2024-01-10T02:42:48;39.53;;;21.20;;
83632;SDS011;73595;53.084;6.696;2024-01-10T02:45:13;39.15;;;21.38;;
83632;SDS011;73595;53.084;6.696;2024-01-10T02:47:39;36.10;;;20.50;;
83632;SDS011;73595;53.084;6.696;2024-01-10T02:50:05;38.70;;;21.02;;
83632;SDS011;73595;53.084;6.696;2024-01-10T02:52:32;37.92;;;20.77;;
83632;SDS011;73595;53.084;6.696;2024-01-10T02:54:59;37.65;;;20.70;;
83632;SDS011;73595;53.084;6.696;2024-01-10T02:57:24;39.13;;;20.60;;
83632;SDS011;73595;53.084;6.696;2024-01-10T02:59:49;41.03;;;21.02;;
83632;SDS011;73595;53.084;6.696;2024-01-10T03:02:15;37.80;;;20.52;;
83632;SDS011;73595;53.084;6.696;2024-01-10T03:04:40;37.28;;;20.05;;
83632;SDS011;73595;53.084;6.696;2024-01-10T03:07:07;37.95;;;21.20;;
83632;SDS011;73595;53.084;6.696;2024-01-10T03:09:32;35.85;;;19.92;;
83632;SDS011;73595;53.084;6.696;2024-01-10T03:11:58;36.15;;;20.02;;
83632;SDS011;73595;53.084;6.696;2024-01-10T03:14:23;30.45;;;18.45;;
83632;SDS011;73595;53.084;6.696;2024-01-10T03:16:48;34.60;;;18.80;;
83632;SDS011;73595;53.084;6.696;2024-01-10T03:19:14;35.15;;;18.33;;
83632;SDS011;73595;53.084;6.696;2024-01-10T03:21:40;38.17;;;19.75;;
83632;SDS011;73595;53.084;6.696;2024-01-10T03:24:05;33.00;;;18.63;;
83632;SDS011;73595;53.084;6.696;2024-01-10T03:26:32;34.15;;;18.70;;
83632;SDS011;73595;53.084;6.696;2024-01-10T03:28:57;28.83;;;17.38;;
83632;SDS011;73595;53.084;6.696;2024-01-10T03:31:25;34.22;;;18.77;;
83632;SDS011;73595;53.084;6.696;2024-01-10T03:33:51;40.42;;;19.35;;
83632;SDS011;73595;53.084;6.696;2024-01-10T03:36:16;32.67;;;17.38;;
83632;SDS011;73595;53.084;6.696;2024-01-10T03:38:42;30.08;;;17.23;;
83632;SDS011;73595;53.084;6.696;2024-01-10T03:41:15;31.60;;;16.70;;
83632;SDS011;73595;53.084;6.696;2024-01-10T03:43:44;27.75;;;15.75;;
83632;SDS011;73595;53.084;6.696;2024-01-10T03:46:11;28.17;;;15.73;;
83632;SDS011;73595;53.084;6.696;2024-01-10T03:48:37;27.20;;;16.75;;
83632;SDS011;73595;53.084;6.696;2024-01-10T03:51:12;29.45;;;16.33;;
83632;SDS011;73595;53.084;6.696;2024-01-10T03:53:42;29.05;;;15.60;;
83632;SDS011;73595;53.084;6.696;2024-01-10T03:56:09;29.20;;;15.57;;
83632;SDS011;73595;53.084;6.696;2024-01-10T03:58:36;25.80;;;14.63;;
83632;SDS011;73595;53.084;6.696;2024-01-10T04:01:05;31.58;;;16.05;;
83632;SDS011;73595;53.084;6.696;2024-01-10T04:03:32;26.40;;;15.38;;
83632;SDS011;73595;53.084;6.696;2024-01-10T04:05:58;26.52;;;15.43;;
83632;SDS011;73595;53.084;6.696;2024-01-10T04:08:24;26.75;;;16.05;;
83632;SDS011;73595;53.084;6.696;2024-01-10T04:10:50;26.58;;;15.40;;
83632;SDS011;73595;53.084;6.696;2024-01-10T04:13:16;30.60;;;16.15;;
83632;SDS011;73595;53.084;6.696;2024-01-10T04:15:43;30.60;;;16.83;;
83632;SDS011;73595;53.084;6.696;2024-01-10T04:18:09;32.65;;;17.27;;
83632;SDS011;73595;53.084;6.696;2024-01-10T04:20:35;28.42;;;16.33;;
83632;SDS011;73595;53.084;6.696;2024-01-10T04:23:01;32.40;;;16.55;;
83632;SDS011;73595;53.084;6.696;2024-01-10T04:25:27;30.05;;;17.38;;
83632;SDS011;73595;53.084;6.696;2024-01-10T04:27:53;28.65;;;17.13;;
83632;SDS011;73595;53.084;6.696;2024-01-10T04:30:20;35.03;;;19.27;;
83632;SDS011;73595;53.084;6.696;2024-01-10T04:32:45;32.17;;;18.00;;
83632;SDS011;73595;53.084;6.696;2024-01-10T04:35:11;30.52;;;17.52;;
83632;SDS011;73595;53.084;6.696;2024-01-10T04:37:37;31.08;;;16.58;;
83632;SDS011;73595;53.084;6.696;2024-01-10T04:40:04;30.85;;;17.00;;
83632;SDS011;73595;53.084;6.696;2024-01-10T04:42:31;33.08;;;17.58;;
83632;SDS011;73595;53.084;6.696;2024-01-10T04:44:58;30.42;;;17.35;;
83632;SDS011;73595;53.084;6.696;2024-01-10T04:47:27;38.28;;;18.83;;
83632;SDS011;73595;53.084;6.696;2024-01-10T04:49:53;31.85;;;18.05;;
83632;SDS011;73595;53.084;6.696;2024-01-10T04:52:18;30.08;;;17.77;;
83632;SDS011;73595;53.084;6.696;2024-01-10T04:54:44;35.50;;;18.10;;
83632;SDS011;73595;53.084;6.696;2024-01-10T04:57:10;31.45;;;18.38;;
83632;SDS011;73595;53.084;6.696;2024-01-10T04:59:37;31.42;;;18.30;;
83632;SDS011;73595;53.084;6.696;2024-01-10T05:02:02;28.95;;;16.77;;
83632;SDS011;73595;53.084;6.696;2024-01-10T05:04:28;34.63;;;18.13;;
83632;SDS011;73595;53.084;6.696;2024-01-10T05:06:53;29.42;;;17.23;;
83632;SDS011;73595;53.084;6.696;2024-01-10T05:09:18;29.52;;;17.83;;
83632;SDS011;73595;53.084;6.696;2024-01-10T05:11:44;35.88;;;18.83;;
83632;SDS011;73595;53.084;6.696;2024-01-10T05:14:14;32.33;;;18.38;;
83632;SDS011;73595;53.084;6.696;2024-01-10T05:16:40;31.83;;;18.30;;
83632;SDS011;73595;53.084;6.696;2024-01-10T05:19:07;32.03;;;17.42;;
83632;SDS011;73595;53.084;6.696;2024-01-10T05:21:32;33.50;;;19.25;;
83632;SDS011;73595;53.084;6.696;2024-01-10T05:23:59;37.55;;;19.27;;
83632;SDS011;73595;53.084;6.696;2024-01-10T05:26:24;31.35;;;17.88;;
83632;SDS011;73595;53.084;6.696;2024-01-10T05:28:50;30.02;;;18.40;;
83632;SDS011;73595;53.084;6.696;2024-01-10T05:31:16;35.28;;;19.30;;
83632;SDS011;73595;53.084;6.696;2024-01-10T05:33:42;35.75;;;19.58;;
83632;SDS011;73595;53.084;6.696;2024-01-10T05:36:08;33.95;;;18.58;;
83632;SDS011;73595;53.084;6.696;2024-01-10T05:38:36;32.60;;;19.33;;
83632;SDS011;73595;53.084;6.696;2024-01-10T05:41:03;32.33;;;19.08;;
83632;SDS011;73595;53.084;6.696;2024-01-10T05:43:29;30.60;;;17.48;;
83632;SDS011;73595;53.084;6.696;2024-01-10T05:45:56;36.03;;;18.45;;
83632;SDS011;73595;53.084;6.696;2024-01-10T05:48:21;30.10;;;17.13;;
83632;SDS011;73595;53.084;6.696;2024-01-10T05:50:47;31.98;;;17.80;;
83632;SDS011;73595;53.084;6.696;2024-01-10T05:53:13;32.72;;;18.63;;
83632;SDS011;73595;53.084;6.696;2024-01-10T05:55:42;31.75;;;17.98;;
83632;SDS011;73595;53.084;6.696;2024-01-10T05:58:07;32.85;;;19.48;;
83632;SDS011;73595;53.084;6.696;2024-01-10T06:00:34;34.10;;;18.17;;
83632;SDS011;73595;53.084;6.696;2024-01-10T06:03:00;35.58;;;19.80;;
83632;SDS011;73595;53.084;6.696;2024-01-10T06:05:28;34.95;;;18.42;;
83632;SDS011;73595;53.084;6.696;2024-01-10T06:07:53;34.45;;;18.60;;
83632;SDS011;73595;53.084;6.696;2024-01-10T06:10:24;31.95;;;19.05;;
83632;SDS011;73595;53.084;6.696;2024-01-10T06:12:50;32.58;;;18.23;;
83632;SDS011;73595;53.084;6.696;2024-01-10T06:15:15;33.38;;;18.77;;
83632;SDS011;73595;53.084;6.696;2024-01-10T06:17:41;30.65;;;18.30;;
83632;SDS011;73595;53.084;6.696;2024-01-10T06:20:07;30.90;;;18.88;;
83632;SDS011;73595;53.084;6.696;2024-01-10T06:22:34;30.10;;;18.50;;
83632;SDS011;73595;53.084;6.696;2024-01-10T06:25:01;32.20;;;19.33;;
83632;SDS011;73595;53.084;6.696;2024-01-10T06:27:26;32.67;;;18.98;;
83632;SDS011;73595;53.084;6.696;2024-01-10T06:29:52;33.65;;;19.65;;
83632;SDS011;73595;53.084;6.696;2024-01-10T06:32:18;33.33;;;19.20;;
83632;SDS011;73595;53.084;6.696;2024-01-10T06:34:44;36.33;;;19.58;;
83632;SDS011;73595;53.084;6.696;2024-01-10T06:37:10;31.02;;;18.08;;
83632;SDS011;73595;53.084;6.696;2024-01-10T06:39:35;30.88;;;18.98;;
83632;SDS011;73595;53.084;6.696;2024-01-10T06:42:02;35.10;;;20.10;;
83632;SDS011;73595;53.084;6.696;2024-01-10T06:44:31;32.75;;;18.90;;
83632;SDS011;73595;53.084;6.696;2024-01-10T06:46:56;33.65;;;18.15;;
83632;SDS011;73595;53.084;6.696;2024-01-10T06:49:23;33.30;;;18.02;;
83632;SDS011;73595;53.084;6.696;2024-01-10T06:51:50;32.72;;;18.25;;
83632;SDS011;73595;53.084;6.696;2024-01-10T06:54:16;35.10;;;18.88;;
83632;SDS011;73595;53.084;6.696;2024-01-10T06:56:43;31.88;;;18.13;;
83632;SDS011;73595;53.084;6.696;2024-01-10T06:59:10;32.00;;;20.13;;
83632;SDS011;73595;53.084;6.696;2024-01-10T07:01:37;37.03;;;19.27;;
83632;SDS011;73595;53.084;6.696;2024-01-10T07:04:04;33.67;;;19.33;;
83632;SDS011;73595;53.084;6.696;2024-01-10T07:06:31;36.90;;;20.30;;
83632;SDS011;73595;53.084;6.696;2024-01-10T07:08:56;33.28;;;19.00;;
83632;SDS011;73595;53.084;6.696;2024-01-10T07:11:23;38.30;;;20.08;;
83632;SDS011;73595;53.084;6.696;2024-01-10T07:13:49;32.33;;;19.02;;
83632;SDS011;73595;53.084;6.696;2024-01-10T07:16:14;30.00;;;18.02;;
83632;SDS011;73595;53.084;6.696;2024-01-10T07:18:41;36.95;;;18.95;;
83632;SDS011;73595;53.084;6.696;2024-01-10T07:21:06;31.88;;;19.15;;
83632;SDS011;73595;53.084;6.696;2024-01-10T07:23:34;35.65;;;19.17;;
83632;SDS011;73595;53.084;6.696;2024-01-10T07:26:00;38.65;;;19.92;;
83632;SDS011;73595;53.084;6.696;2024-01-10T07:28:27;33.17;;;18.63;;
83632;SDS011;73595;53.084;6.696;2024-01-10T07:30:53;35.08;;;19.55;;
83632;SDS011;73595;53.084;6.696;2024-01-10T07:33:19;35.03;;;20.10;;
83632;SDS011;73595;53.084;6.696;2024-01-10T07:35:45;32.22;;;18.60;;
83632;SDS011;73595;53.084;6.696;2024-01-10T07:38:10;34.55;;;19.08;;
83632;SDS011;73595;53.084;6.696;2024-01-10T07:40:36;35.70;;;18.40;;
83632;SDS011;73595;53.084;6.696;2024-01-10T07:43:01;34.60;;;18.88;;
83632;SDS011;73595;53.084;6.696;2024-01-10T07:45:29;33.80;;;18.63;;
83632;SDS011;73595;53.084;6.696;2024-01-10T07:47:54;33.90;;;19.05;;
83632;SDS011;73595;53.084;6.696;2024-01-10T07:50:20;35.13;;;19.45;;
83632;SDS011;73595;53.084;6.696;2024-01-10T07:52:45;35.55;;;18.58;;
83632;SDS011;73595;53.084;6.696;2024-01-10T07:55:11;36.90;;;19.50;;
83632;SDS011;73595;53.084;6.696;2024-01-10T07:57:37;38.67;;;18.20;;
83632;SDS011;73595;53.084;6.696;2024-01-10T08:00:06;33.05;;;18.50;;
83632;SDS011;73595;53.084;6.696;2024-01-10T08:05:01;37.17;;;16.80;;
83632;SDS011;73595;53.084;6.696;2024-01-10T08:07:30;36.17;;;19.02;;
83632;SDS011;73595;53.084;6.696;2024-01-10T08:09:57;38.40;;;17.63;;
83632;SDS011;73595;53.084;6.696;2024-01-10T08:12:24;37.50;;;18.38;;
83632;SDS011;73595;53.084;6.696;2024-01-10T08:14:49;38.70;;;18.40;;
83632;SDS011;73595;53.084;6.696;2024-01-10T08:17:15;34.92;;;17.33;;
83632;SDS011;73595;53.084;6.696;2024-01-10T08:19:40;37.15;;;18.65;;
83632;SDS011;73595;53.084;6.696;2024-01-10T08:22:06;42.00;;;18.15;;
83632;SDS011;73595;53.084;6.696;2024-01-10T08:24:32;36.58;;;17.88;;
83632;SDS011;73595;53.084;6.696;2024-01-10T08:26:58;39.38;;;18.67;;
83632;SDS011;73595;53.084;6.696;2024-01-10T08:29:23;39.17;;;17.83;;
83632;SDS011;73595;53.084;6.696;2024-01-10T08:31:55;42.28;;;18.67;;
83632;SDS011;73595;53.084;6.696;2024-01-10T08:34:21;39.65;;;17.73;;
83632;SDS011;73595;53.084;6.696;2024-01-10T08:36:47;38.50;;;15.15;;
83632;SDS011;73595;53.084;6.696;2024-01-10T08:39:15;35.67;;;16.23;;
83632;SDS011;73595;53.084;6.696;2024-01-10T08:41:43;35.75;;;15.95;;
83632;SDS011;73595;53.084;6.696;2024-01-10T08:44:09;34.70;;;16.08;;
83632;SDS011;73595;53.084;6.696;2024-01-10T08:46:36;37.65;;;17.77;;
83632;SDS011;73595;53.084;6.696;2024-01-10T08:49:01;36.50;;;15.65;;
83632;SDS011;73595;53.084;6.696;2024-01-10T08:51:28;29.45;;;13.80;;
83632;SDS011;73595;53.084;6.696;2024-01-10T08:53:55;36.03;;;16.55;;
83632;SDS011;73595;53.084;6.696;2024-01-10T08:56:21;35.80;;;16.27;;
83632;SDS011;73595;53.084;6.696;2024-01-10T08:58:47;35.95;;;15.55;;
83632;SDS011;73595;53.084;6.696;2024-01-10T09:01:13;35.08;;;15.73;;
83632;SDS011;73595;53.084;6.696;2024-01-10T09:03:38;33.72;;;14.60;;
83632;SDS011;73595;53.084;6.696;2024-01-10T09:06:04;34.88;;;15.48;;
83632;SDS011;73595;53.084;6.696;2024-01-10T09:08:30;35.80;;;15.32;;
83632;SDS011;73595;53.084;6.696;2024-01-10T09:10:55;38.70;;;15.85;;
83632;SDS011;73595;53.084;6.696;2024-01-10T09:13:21;30.58;;;14.55;;
83632;SDS011;73595;53.084;6.696;2024-01-10T09:15:46;38.05;;;15.00;;
83632;SDS011;73595;53.084;6.696;2024-01-10T09:18:11;30.25;;;14.75;;
83632;SDS011;73595;53.084;6.696;2024-01-10T09:20:37;33.35;;;14.38;;
83632;SDS011;73595;53.084;6.696;2024-01-10T09:23:03;36.22;;;15.05;;
83632;SDS011;73595;53.084;6.696;2024-01-10T09:25:29;36.03;;;14.60;;
83632;SDS011;73595;53.084;6.696;2024-01-10T09:27:54;35.15;;;14.95;;
83632;SDS011;73595;53.084;6.696;2024-01-10T09:30:20;36.58;;;15.50;;
83632;SDS011;73595;53.084;6.696;2024-01-10T09:32:46;36.45;;;14.75;;
83632;SDS011;73595;53.084;6.696;2024-01-10T09:35:12;34.08;;;13.48;;
83632;SDS011;73595;53.084;6.696;2024-01-10T09:37:39;35.33;;;13.60;;
83632;SDS011;73595;53.084;6.696;2024-01-10T09:40:05;37.35;;;13.98;;
83632;SDS011;73595;53.084;6.696;2024-01-10T09:42:32;32.55;;;13.40;;
83632;SDS011;73595;53.084;6.696;2024-01-10T09:45:00;35.83;;;14.05;;
83632;SDS011;73595;53.084;6.696;2024-01-10T09:47:26;33.60;;;14.18;;
83632;SDS011;73595;53.084;6.696;2024-01-10T09:49:52;33.58;;;13.52;;
83632;SDS011;73595;53.084;6.696;2024-01-10T09:52:23;30.52;;;13.55;;
83632;SDS011;73595;53.084;6.696;2024-01-10T09:54:53;28.65;;;13.38;;
83632;SDS011;73595;53.084;6.696;2024-01-10T09:57:19;29.77;;;14.02;;
83632;SDS011;73595;53.084;6.696;2024-01-10T09:59:46;30.70;;;13.38;;
83632;SDS011;73595;53.084;6.696;2024-01-10T10:02:13;29.00;;;13.07;;
83632;SDS011;73595;53.084;6.696;2024-01-10T10:04:42;29.45;;;12.05;;
83632;SDS011;73595;53.084;6.696;2024-01-10T10:07:21;29.75;;;13.32;;
83632;SDS011;73595;53.084;6.696;2024-01-10T10:09:50;30.20;;;12.80;;
83632;SDS011;73595;53.084;6.696;2024-01-10T10:12:15;32.28;;;14.05;;
83632;SDS011;73595;53.084;6.696;2024-01-10T10:14:41;31.60;;;13.75;;
83632;SDS011;73595;53.084;6.696;2024-01-10T10:17:15;33.20;;;13.43;;
83632;SDS011;73595;53.084;6.696;2024-01-10T10:19:43;34.58;;;13.00;;
83632;SDS011;73595;53.084;6.696;2024-01-10T10:22:10;28.35;;;12.30;;
83632;SDS011;73595;53.084;6.696;2024-01-10T10:24:36;31.42;;;12.75;;
83632;SDS011;73595;53.084;6.696;2024-01-10T10:27:01;30.55;;;11.98;;
83632;SDS011;73595;53.084;6.696;2024-01-10T10:29:33;29.75;;;12.43;;
83632;SDS011;73595;53.084;6.696;2024-01-10T10:32:00;27.27;;;12.38;;
83632;SDS011;73595;53.084;6.696;2024-01-10T10:34:30;27.67;;;12.70;;
83632;SDS011;73595;53.084;6.696;2024-01-10T10:36:57;24.55;;;11.70;;
83632;SDS011;73595;53.084;6.696;2024-01-10T10:39:26;27.52;;;12.10;;
83632;SDS011;73595;53.084;6.696;2024-01-10T10:41:51;29.48;;;12.15;;
83632;SDS011;73595;53.084;6.696;2024-01-10T10:44:18;28.30;;;11.52;;
83632;SDS011;73595;53.084;6.696;2024-01-10T10:46:47;29.50;;;12.35;;
83632;SDS011;73595;53.084;6.696;2024-01-10T10:51:48;28.58;;;12.10;;
83632;SDS011;73595;53.084;6.696;2024-01-10T10:54:15;27.30;;;10.77;;
83632;SDS011;73595;53.084;6.696;2024-01-10T10:56:43;24.52;;;10.40;;
83632;SDS011;73595;53.084;6.696;2024-01-10T10:59:09;24.25;;;9.75;;
83632;SDS011;73595;53.084;6.696;2024-01-10T11:01:37;26.40;;;11.15;;
83632;SDS011;73595;53.084;6.696;2024-01-10T11:04:04;24.73;;;10.50;;
83632;SDS011;73595;53.084;6.696;2024-01-10T11:06:30;24.80;;;11.38;;
83632;SDS011;73595;53.084;6.696;2024-01-10T11:09:01;25.70;;;11.05;;
83632;SDS011;73595;53.084;6.696;2024-01-10T11:11:57;29.65;;;12.90;;
83632;SDS011;73595;53.084;6.696;2024-01-10T11:20:09;25.63;;;11.13;;
83632;SDS011;73595;53.084;6.696;2024-01-10T11:22:41;30.55;;;11.55;;
83632;SDS011;73595;53.084;6.696;2024-01-10T11:25:17;26.38;;;10.75;;
83632;SDS011;73595;53.084;6.696;2024-01-10T11:27:44;23.27;;;10.77;;
83632;SDS011;73595;53.084;6.696;2024-01-10T11:30:10;24.77;;;10.65;;
83632;SDS011;73595;53.084;6.696;2024-01-10T11:32:36;25.27;;;10.38;;
83632;SDS011;73595;53.084;6.696;2024-01-10T11:35:05;24.48;;;10.18;;
83632;SDS011;73595;53.084;6.696;2024-01-10T11:37:42;25.58;;;10.90;;
83632;SDS011;73595;53.084;6.696;2024-01-10T11:40:09;23.25;;;10.75;;
83632;SDS011;73595;53.084;6.696;2024-01-10T11:42:43;21.45;;;10.18;;
83632;SDS011;73595;53.084;6.696;2024-01-10T11:45:11;22.95;;;9.85;;
83632;SDS011;73595;53.084;6.696;2024-01-10T11:48:00;22.40;;;10.75;;
83632;SDS011;73595;53.084;6.696;2024-01-10T11:50:26;24.25;;;10.20;;
83632;SDS011;73595;53.084;6.696;2024-01-10T11:52:56;22.10;;;10.10;;
83632;SDS011;73595;53.084;6.696;2024-01-10T11:58:12;20.33;;;10.18;;
83632;SDS011;73595;53.084;6.696;2024-01-10T12:00:37;18.58;;;9.48;;
83632;SDS011;73595;53.084;6.696;2024-01-10T12:03:03;22.17;;;9.70;;
83632;SDS011;73595;53.084;6.696;2024-01-10T12:05:29;20.02;;;10.27;;
83632;SDS011;73595;53.084;6.696;2024-01-10T12:07:55;19.23;;;9.70;;
83632;SDS011;73595;53.084;6.696;2024-01-10T12:10:20;19.55;;;10.18;;
83632;SDS011;73595;53.084;6.696;2024-01-10T12:12:46;20.90;;;9.93;;
83632;SDS011;73595;53.084;6.696;2024-01-10T12:15:11;21.02;;;10.25;;
83632;SDS011;73595;53.084;6.696;2024-01-10T12:17:36;20.58;;;9.55;;
83632;SDS011;73595;53.084;6.696;2024-01-10T12:20:02;23.02;;;9.43;;
83632;SDS011;73595;53.084;6.696;2024-01-10T12:22:28;20.33;;;10.35;;
83632;SDS011;73595;53.084;6.696;2024-01-10T12:24:53;22.75;;;10.30;;
83632;SDS011;73595;53.084;6.696;2024-01-10T12:27:19;22.48;;;9.63;;
83632;SDS011;73595;53.084;6.696;2024-01-10T12:29:49;19.95;;;9.45;;
83632;SDS011;73595;53.084;6.696;2024-01-10T12:32:17;18.55;;;9.68;;
83632;SDS011;73595;53.084;6.696;2024-01-10T12:34:43;17.63;;;9.75;;
83632;SDS011;73595;53.084;6.696;2024-01-10T12:37:10;21.25;;;10.32;;
83632;SDS011;73595;53.084;6.696;2024-01-10T12:39:36;18.65;;;9.40;;
83632;SDS011;73595;53.084;6.696;2024-01-10T12:42:04;19.83;;;9.80;;
83632;SDS011;73595;53.084;6.696;2024-01-10T12:44:30;21.38;;;10.70;;
83632;SDS011;73595;53.084;6.696;2024-01-10T12:46:55;21.95;;;9.90;;
83632;SDS011;73595;53.084;6.696;2024-01-10T12:49:22;20.33;;;10.20;;
83632;SDS011;73595;53.084;6.696;2024-01-10T12:51:47;22.77;;;10.63;;
83632;SDS011;73595;53.084;6.696;2024-01-10T12:54:14;22.55;;;10.77;;
83632;SDS011;73595;53.084;6.696;2024-01-10T12:56:41;26.25;;;10.35;;
83632;SDS011;73595;53.084;6.696;2024-01-10T12:59:06;19.88;;;10.40;;
83632;SDS011;73595;53.084;6.696;2024-01-10T13:01:34;19.75;;;9.80;;
83632;SDS011;73595;53.084;6.696;2024-01-10T13:04:00;22.10;;;10.65;;
83632;SDS011;73595;53.084;6.696;2024-01-10T13:06:25;21.83;;;10.85;;
83632;SDS011;73595;53.084;6.696;2024-01-10T13:08:53;19.02;;;10.35;;
83632;SDS011;73595;53.084;6.696;2024-01-10T13:11:19;20.67;;;9.50;;
83632;SDS011;73595;53.084;6.696;2024-01-10T13:13:45;21.58;;;10.18;;
83632;SDS011;73595;53.084;6.696;2024-01-10T13:16:10;21.63;;;9.80;;
83632;SDS011;73595;53.084;6.696;2024-01-10T13:18:39;19.45;;;11.13;;
83632;SDS011;73595;53.084;6.696;2024-01-10T13:21:04;19.98;;;9.15;;
83632;SDS011;73595;53.084;6.696;2024-01-10T13:23:37;19.35;;;10.10;;
83632;SDS011;73595;53.084;6.696;2024-01-10T13:26:04;17.27;;;9.77;;
83632;SDS011;73595;53.084;6.696;2024-01-10T13:28:32;20.33;;;10.27;;
83632;SDS011;73595;53.084;6.696;2024-01-10T13:30:57;21.92;;;9.60;;
83632;SDS011;73595;53.084;6.696;2024-01-10T13:33:23;19.90;;;9.55;;
83632;SDS011;73595;53.084;6.696;2024-01-10T13:35:50;18.42;;;9.85;;
83632;SDS011;73595;53.084;6.696;2024-01-10T13:38:16;20.02;;;10.80;;
83632;SDS011;73595;53.084;6.696;2024-01-10T13:40:41;20.58;;;10.00;;
83632;SDS011;73595;53.084;6.696;2024-01-10T13:43:09;20.23;;;9.75;;
83632;SDS011;73595;53.084;6.696;2024-01-10T13:45:37;19.73;;;9.30;;
83632;SDS011;73595;53.084;6.696;2024-01-10T13:48:04;22.17;;;10.13;;
83632;SDS011;73595;53.084;6.696;2024-01-10T13:50:29;19.15;;;9.55;;
83632;SDS011;73595;53.084;6.696;2024-01-10T13:52:55;19.77;;;9.40;;
83632;SDS011;73595;53.084;6.696;2024-01-10T13:55:20;21.90;;;10.05;;
83632;SDS011;73595;53.084;6.696;2024-01-10T13:57:46;16.90;;;9.18;;
83632;SDS011;73595;53.084;6.696;2024-01-10T14:00:11;17.60;;;9.13;;
83632;SDS011;73595;53.084;6.696;2024-01-10T14:02:39;20.30;;;9.77;;
83632;SDS011;73595;53.084;6.696;2024-01-10T14:05:09;18.63;;;10.38;;
83632;SDS011;73595;53.084;6.696;2024-01-10T14:07:35;24.55;;;10.63;;
83632;SDS011;73595;53.084;6.696;2024-01-10T14:10:00;21.45;;;10.75;;
83632;SDS011;73595;53.084;6.696;2024-01-10T14:12:27;18.25;;;9.93;;
83632;SDS011;73595;53.084;6.696;2024-01-10T14:14:53;19.00;;;10.27;;
83632;SDS011;73595;53.084;6.696;2024-01-10T14:17:19;19.90;;;10.60;;
83632;SDS011;73595;53.084;6.696;2024-01-10T14:19:44;22.35;;;11.52;;
83632;SDS011;73595;53.084;6.696;2024-01-10T14:22:10;23.42;;;12.05;;
83632;SDS011;73595;53.084;6.696;2024-01-10T14:24:36;22.55;;;11.30;;
83632;SDS011;73595;53.084;6.696;2024-01-10T14:27:02;20.45;;;11.18;;
83632;SDS011;73595;53.084;6.696;2024-01-10T14:29:27;22.90;;;11.48;;
83632;SDS011;73595;53.084;6.696;2024-01-10T14:31:54;23.58;;;11.68;;
83632;SDS011;73595;53.084;6.696;2024-01-10T14:34:20;23.17;;;11.88;;